createdAt,value
2022-12-27T00:02:15.935Z,4.85
2022-12-27T00:04:42.787Z,5.22
2022-12-27T00:07:09.682Z,4.40
2022-12-27T00:09:36.688Z,6.25
2022-12-27T00:12:04.099Z,4.07
2022-12-27T00:14:31.982Z,5.00
2022-12-27T00:16:58.871Z,5.20
2022-12-27T00:19:25.742Z,5.82
2022-12-27T00:21:52.617Z,4.38
2022-12-27T00:24:19.477Z,4.88
2022-12-27T00:26:46.284Z,4.88
2022-12-27T00:29:13.583Z,4.07
2022-12-27T00:31:40.542Z,5.45
2022-12-27T00:34:08.576Z,5.28
2022-12-27T00:36:35.546Z,5.00
2022-12-27T00:39:02.788Z,3.90
2022-12-27T00:41:29.857Z,3.97
2022-12-27T00:43:56.816Z,4.60
2022-12-27T00:46:23.823Z,4.38
2022-12-27T00:48:50.720Z,5.00
2022-12-27T00:51:22.831Z,3.90
2022-12-27T00:53:51.040Z,5.53
2022-12-27T00:56:20.513Z,4.32
2022-12-27T00:58:47.771Z,4.47
2022-12-27T01:01:18.038Z,4.40
2022-12-27T01:03:45.094Z,5.93
2022-12-27T01:06:14.531Z,3.70
2022-12-27T01:08:41.710Z,4.70
2022-12-27T01:11:09.523Z,5.18
2022-12-27T01:13:36.621Z,5.43
2022-12-27T01:16:10.147Z,5.10
2022-12-27T01:18:37.107Z,4.85
2022-12-27T01:21:12.744Z,4.20
2022-12-27T01:23:40.191Z,3.63
2022-12-27T01:26:11.198Z,4.75
2022-12-27T01:28:38.170Z,5.57
2022-12-27T01:31:07.161Z,4.18
2022-12-27T01:33:34.362Z,3.58
2022-12-27T01:36:14.845Z,4.53
2022-12-27T01:38:45.072Z,4.90
2022-12-27T01:41:52.101Z,6.65
2022-12-27T01:44:44.192Z,3.60
2022-12-27T01:47:40.765Z,3.88
2022-12-27T01:50:10.204Z,4.22
2022-12-27T01:52:41.698Z,3.88
2022-12-27T01:55:41.095Z,6.40
2022-12-27T01:58:13.948Z,5.38
2022-12-27T02:00:43.945Z,3.90
2022-12-27T02:03:12.213Z,5.93
2022-12-27T02:05:41.830Z,4.45
2022-12-27T02:08:24.367Z,5.72
2022-12-27T02:10:51.519Z,3.88
2022-12-27T02:13:19.594Z,4.18
2022-12-27T02:15:46.568Z,3.88
2022-12-27T02:18:13.551Z,4.22
2022-12-27T02:21:01.811Z,3.47
2022-12-27T02:23:51.182Z,4.13
2022-12-27T02:26:44.877Z,5.43
2022-12-27T02:29:14.777Z,4.82
2022-12-27T02:31:51.333Z,4.07
2022-12-27T02:34:27.809Z,3.63
2022-12-27T02:36:59.618Z,4.47
2022-12-27T02:39:27.156Z,4.13
2022-12-27T02:42:13.536Z,3.55
2022-12-27T02:45:18.689Z,4.13
2022-12-27T02:48:08.069Z,6.65
2022-12-27T02:51:27.273Z,3.78
2022-12-27T02:54:38.438Z,3.92
2022-12-27T02:57:44.846Z,3.50
2022-12-27T03:00:37.568Z,3.72
2022-12-27T03:03:24.175Z,5.55
2022-12-27T03:06:39.994Z,3.22
2022-12-27T03:09:39.167Z,5.07
2022-12-27T03:15:16.088Z,3.65
2022-12-27T03:17:50.745Z,5.22
2022-12-27T03:20:37.451Z,4.65
2022-12-27T03:23:23.292Z,3.40
2022-12-27T03:25:52.376Z,3.38
2022-12-27T03:28:48.264Z,4.28
2022-12-27T03:31:42.317Z,3.00
2022-12-27T03:34:30.211Z,2.83
2022-12-27T03:37:19.165Z,3.72
2022-12-27T03:40:18.583Z,4.95
2022-12-27T03:43:12.323Z,3.22
2022-12-27T03:46:31.849Z,3.50
2022-12-27T03:49:12.712Z,2.67
2022-12-27T03:51:58.280Z,3.40
2022-12-27T03:54:27.995Z,3.78
2022-12-27T03:56:59.989Z,3.28
2022-12-27T03:59:27.096Z,4.22
2022-12-27T04:01:54.231Z,4.53
2022-12-27T04:04:21.175Z,3.47
2022-12-27T04:06:48.101Z,4.55
2022-12-27T04:09:33.389Z,3.80
2022-12-27T04:12:18.762Z,3.08
2022-12-27T04:15:04.044Z,5.57
2022-12-27T04:17:49.382Z,3.50
2022-12-27T04:20:34.746Z,3.55
2022-12-27T04:23:21.183Z,4.85
2022-12-27T04:26:07.018Z,3.55
2022-12-27T04:28:52.326Z,4.38
2022-12-27T04:31:37.698Z,4.10
2022-12-27T04:34:23.030Z,2.75
2022-12-27T04:36:50.220Z,3.28
2022-12-27T04:39:17.244Z,2.60
2022-12-27T04:42:03.295Z,2.65
2022-12-27T04:44:48.627Z,3.05
2022-12-27T04:47:35.566Z,3.55
2022-12-27T04:50:21.379Z,3.63
2022-12-27T04:53:07.076Z,4.18
2022-12-27T04:55:33.967Z,2.95
2022-12-27T04:58:01.927Z,3.60
2022-12-27T05:00:49.024Z,3.70
2022-12-27T05:03:21.033Z,3.60
2022-12-27T05:05:48.971Z,4.50
2022-12-27T05:08:35.447Z,3.60
2022-12-27T05:11:20.691Z,2.88
2022-12-27T05:14:00.087Z,3.78
2022-12-27T05:16:39.478Z,4.57
2022-12-27T05:22:01.402Z,3.17
2022-12-27T05:24:46.774Z,3.53
2022-12-27T05:27:13.599Z,3.42
2022-12-27T05:29:40.397Z,4.95
2022-12-27T05:32:12.850Z,3.90
2022-12-27T05:34:40.257Z,4.10
2022-12-27T05:37:07.290Z,4.05
2022-12-27T05:39:34.119Z,3.58
2022-12-27T05:42:01.031Z,3.67
2022-12-27T05:44:27.915Z,3.85
2022-12-27T05:46:55.415Z,3.03
2022-12-27T05:49:22.524Z,5.72
2022-12-27T05:51:49.451Z,2.70
2022-12-27T05:54:16.338Z,4.38
2022-12-27T05:56:43.272Z,4.10
2022-12-27T05:59:10.149Z,4.03
2022-12-27T06:01:37.150Z,4.72
2022-12-27T06:04:04.178Z,3.30
2022-12-27T06:06:31.044Z,4.60
2022-12-27T06:08:57.910Z,5.40
2022-12-27T06:11:24.842Z,3.58
2022-12-27T06:13:53.484Z,3.58
2022-12-27T06:16:21.936Z,3.30
2022-12-27T06:18:48.786Z,2.67
2022-12-27T06:21:19.154Z,4.57
2022-12-27T06:23:47.419Z,2.92
2022-12-27T06:26:25.833Z,2.70
2022-12-27T06:28:54.439Z,3.93
2022-12-27T06:31:21.747Z,4.90
2022-12-27T06:33:49.629Z,3.95
2022-12-27T06:36:19.066Z,3.75
2022-12-27T06:38:46.082Z,3.88
2022-12-27T06:41:17.233Z,4.60
2022-12-27T06:43:45.182Z,3.67
2022-12-27T06:46:18.345Z,2.72
2022-12-27T06:48:46.551Z,2.75
2022-12-27T06:51:15.405Z,4.43
2022-12-27T06:53:46.156Z,4.40
2022-12-27T06:56:18.233Z,4.07
2022-12-27T06:58:49.122Z,3.55
2022-12-27T07:01:24.466Z,3.38
2022-12-27T07:03:52.849Z,2.72
2022-12-27T07:06:21.388Z,2.80
2022-12-27T07:08:49.025Z,3.87
2022-12-27T07:11:17.333Z,3.15
2022-12-27T07:13:47.178Z,4.13
2022-12-27T07:16:15.996Z,2.67
2022-12-27T07:18:43.054Z,2.75
2022-12-27T07:21:15.527Z,3.05
2022-12-27T07:23:42.956Z,3.47
2022-12-27T07:26:15.764Z,9.30
2022-12-27T07:28:42.863Z,6.35
2022-12-27T07:31:12.615Z,8.20
2022-12-27T07:33:39.804Z,8.15
2022-12-27T07:36:09.320Z,6.45
2022-12-27T07:38:36.163Z,19.02
2022-12-27T07:41:03.448Z,14.80
2022-12-27T07:43:34.138Z,19.23
2022-12-27T07:46:09.314Z,5.38
2022-12-27T07:48:36.500Z,7.82
2022-12-27T07:51:04.329Z,6.95
2022-12-27T07:53:31.813Z,5.97
2022-12-27T07:55:58.797Z,4.53
2022-12-27T07:58:25.950Z,5.72
2022-12-27T08:00:53.135Z,3.72
2022-12-27T08:03:20.306Z,5.50
2022-12-27T08:05:54.577Z,6.82
2022-12-27T08:08:23.882Z,6.10
2022-12-27T08:10:50.802Z,4.90
2022-12-27T08:13:17.672Z,3.85
2022-12-27T08:15:45.207Z,3.65
2022-12-27T08:18:12.164Z,3.38
2022-12-27T08:20:39.052Z,3.88
2022-12-27T08:23:05.931Z,4.15
2022-12-27T08:25:32.898Z,3.90
2022-12-27T08:28:04.605Z,8.10
2022-12-27T08:30:31.805Z,7.35
2022-12-27T08:32:58.689Z,9.70
2022-12-27T08:35:51.465Z,11.90
2022-12-27T08:38:13.289Z,12.30
2022-12-27T08:40:42.531Z,10.70
2022-12-27T08:43:09.788Z,9.40
2022-12-27T08:45:37.679Z,10.32
2022-12-27T08:48:05.472Z,10.18
2022-12-27T08:50:32.846Z,8.50
2022-12-27T08:53:01.511Z,7.18
2022-12-27T08:55:29.205Z,6.55
2022-12-27T08:58:00.330Z,10.90
2022-12-27T09:00:27.936Z,5.43
2022-12-27T09:02:54.944Z,5.97
2022-12-27T09:05:24.454Z,7.63
2022-12-27T09:07:51.686Z,8.48
2022-12-27T09:10:19.385Z,8.07
2022-12-27T09:12:46.319Z,7.65
2022-12-27T09:15:13.382Z,5.30
2022-12-27T09:17:40.448Z,8.48
2022-12-27T09:20:08.188Z,5.70
2022-12-27T09:22:35.287Z,7.53
2022-12-27T09:25:02.209Z,5.75
2022-12-27T09:27:29.131Z,5.65
2022-12-27T09:29:56.060Z,5.63
2022-12-27T09:32:27.371Z,5.80
2022-12-27T09:34:54.768Z,6.72
2022-12-27T09:37:21.756Z,5.43
2022-12-27T09:39:48.671Z,5.20
2022-12-27T09:42:56.176Z,5.72
2022-12-27T09:45:37.439Z,4.30
2022-12-27T09:48:05.130Z,6.00
2022-12-27T09:50:55.995Z,2.97
2022-12-27T09:53:43.456Z,4.82
2022-12-27T09:56:13.700Z,5.07
2022-12-27T09:58:49.233Z,3.92
2022-12-27T10:01:37.106Z,6.63
2022-12-27T10:04:05.183Z,7.22
2022-12-27T10:06:50.232Z,7.35
2022-12-27T10:09:22.849Z,5.35
2022-12-27T10:12:03.569Z,9.18
2022-12-27T10:14:33.542Z,8.85
2022-12-27T10:17:14.865Z,7.03
2022-12-27T10:19:48.881Z,8.73
2022-12-27T10:22:32.635Z,7.80
2022-12-27T10:25:01.193Z,6.90
2022-12-27T10:27:29.481Z,13.18
2022-12-27T10:29:58.192Z,10.27
2022-12-27T10:32:25.785Z,7.78
2022-12-27T10:34:56.022Z,5.55
2022-12-27T10:37:23.035Z,6.53
2022-12-27T10:39:49.961Z,7.53
2022-12-27T10:42:38.773Z,7.70
2022-12-27T10:45:24.983Z,5.15
2022-12-27T10:47:52.986Z,5.63
2022-12-27T10:50:22.196Z,6.07
2022-12-27T10:52:54.138Z,7.22
2022-12-27T10:55:39.643Z,12.60
2022-12-27T10:58:39.467Z,7.38
2022-12-27T11:01:06.636Z,7.55
2022-12-27T11:03:34.316Z,12.65
2022-12-27T11:06:18.806Z,5.95
2022-12-27T11:08:45.814Z,6.03
2022-12-27T11:11:13.738Z,5.30
2022-12-27T11:13:41.179Z,8.48
2022-12-27T11:16:26.315Z,5.25
2022-12-27T11:18:56.139Z,4.82
2022-12-27T11:21:27.826Z,5.32
2022-12-27T11:24:00.225Z,5.68
2022-12-27T11:26:40.312Z,4.18
2022-12-27T11:29:15.286Z,6.80
2022-12-27T11:31:48.026Z,5.72
2022-12-27T11:34:30.945Z,5.40
2022-12-27T11:37:10.822Z,5.47
2022-12-27T11:39:51.949Z,6.55
2022-12-27T11:42:38.413Z,7.78
2022-12-27T11:45:10.637Z,6.53
2022-12-27T11:47:49.417Z,6.95
2022-12-27T11:50:28.208Z,5.35
2022-12-27T11:53:00.828Z,7.15
2022-12-27T11:55:52.423Z,5.95
2022-12-27T11:58:28.797Z,4.50
2022-12-27T12:01:18.733Z,4.53
2022-12-27T12:04:04.697Z,4.75
2022-12-27T12:06:56.332Z,4.75
2022-12-27T12:10:01.790Z,7.25
2022-12-27T12:12:56.716Z,5.28
2022-12-27T12:15:45.116Z,4.35
2022-12-27T12:18:23.311Z,6.47
2022-12-27T12:21:44.346Z,3.13
2022-12-27T12:24:42.294Z,3.63
2022-12-27T12:27:30.735Z,4.60
2022-12-27T12:30:39.569Z,6.55
2022-12-27T12:33:06.422Z,3.88
2022-12-27T12:35:40.972Z,4.13
2022-12-27T12:38:38.756Z,6.30
2022-12-27T12:41:38.833Z,6.22
2022-12-27T12:44:28.221Z,3.60
2022-12-27T12:46:58.080Z,2.75
2022-12-27T12:49:51.300Z,4.22
2022-12-27T12:52:32.012Z,3.00
2022-12-27T12:55:12.900Z,3.35
2022-12-27T12:57:58.530Z,4.03
2022-12-27T13:00:36.383Z,5.18
2022-12-27T13:03:09.623Z,4.38
2022-12-27T13:06:04.935Z,2.40
2022-12-27T13:08:48.059Z,8.25
2022-12-27T13:11:38.238Z,3.88
2022-12-27T13:14:29.313Z,3.78
2022-12-27T13:17:19.980Z,3.47
2022-12-27T13:19:59.912Z,3.42
2022-12-27T13:23:17.937Z,4.18
2022-12-27T13:26:07.084Z,3.45
2022-12-27T13:31:40.400Z,4.22
2022-12-27T13:34:31.560Z,2.67
2022-12-27T13:37:07.303Z,4.30
2022-12-27T13:40:01.602Z,4.18
2022-12-27T13:42:55.772Z,3.13
2022-12-27T13:45:42.372Z,4.55
2022-12-27T13:48:30.625Z,3.90
2022-12-27T13:51:45.294Z,3.07
2022-12-27T13:54:52.858Z,4.03
2022-12-27T13:57:47.263Z,3.42
2022-12-27T14:00:17.367Z,4.30
2022-12-27T14:03:17.756Z,3.17
2022-12-27T14:06:00.925Z,3.00
2022-12-27T14:08:55.098Z,3.35
2022-12-27T14:11:43.556Z,2.75
2022-12-27T14:14:14.051Z,3.35
2022-12-27T14:17:00.738Z,3.65
2022-12-27T14:19:42.516Z,4.88
2022-12-27T14:22:27.146Z,3.63
2022-12-27T14:25:25.549Z,3.38
2022-12-27T14:28:15.383Z,4.13
2022-12-27T14:30:53.712Z,4.82
2022-12-27T14:33:48.936Z,3.50
2022-12-27T14:36:18.651Z,5.47
2022-12-27T14:39:16.137Z,4.78
2022-12-27T14:42:20.975Z,3.03
2022-12-27T14:45:02.968Z,3.45
2022-12-27T14:47:59.602Z,3.70
2022-12-27T14:51:03.578Z,8.20
2022-12-27T14:53:54.376Z,4.82
2022-12-27T14:56:33.931Z,6.50
2022-12-27T14:59:38.336Z,7.82
2022-12-27T15:02:23.655Z,9.90
2022-12-27T15:05:10.692Z,12.88
2022-12-27T15:08:10.290Z,7.80
2022-12-27T15:10:51.602Z,10.52
2022-12-27T15:13:25.100Z,8.18
2022-12-27T15:16:22.358Z,12.43
2022-12-27T15:18:58.057Z,6.18
2022-12-27T15:21:55.575Z,7.80
2022-12-27T15:24:28.277Z,7.68
2022-12-27T15:27:19.280Z,8.15
2022-12-27T15:30:05.410Z,5.43
2022-12-27T15:33:02.394Z,7.15
2022-12-27T15:35:37.138Z,11.15
2022-12-27T15:38:16.874Z,12.10
2022-12-27T15:40:56.511Z,6.05
2022-12-27T15:44:05.808Z,7.68
2022-12-27T15:46:59.647Z,5.32
2022-12-27T15:49:46.916Z,12.23
2022-12-27T15:52:23.343Z,6.25
2022-12-27T15:55:00.613Z,9.23
2022-12-27T15:57:46.066Z,6.78
2022-12-27T16:00:32.455Z,7.60
2022-12-27T16:03:02.742Z,6.57
2022-12-27T16:05:55.857Z,6.90
2022-12-27T16:08:35.746Z,9.52
2022-12-27T16:11:05.324Z,5.47
2022-12-27T16:13:42.396Z,8.82
2022-12-27T16:16:33.361Z,7.18
2022-12-27T16:19:18.205Z,5.78
2022-12-27T16:21:46.526Z,6.55
2022-12-27T16:24:22.631Z,7.60
2022-12-27T16:26:59.597Z,8.82
2022-12-27T16:29:29.975Z,5.93
2022-12-27T16:32:16.865Z,5.50
2022-12-27T16:34:45.794Z,6.90
2022-12-27T16:37:28.134Z,9.30
2022-12-27T16:40:34.758Z,8.90
2022-12-27T16:43:10.742Z,9.43
2022-12-27T16:46:08.978Z,13.50
2022-12-27T16:48:52.433Z,9.17
2022-12-27T16:51:33.027Z,11.70
2022-12-27T16:54:14.983Z,10.98
2022-12-27T16:56:44.904Z,11.30
2022-12-27T16:59:49.481Z,13.25
2022-12-27T17:02:44.477Z,18.48
2022-12-27T17:05:17.549Z,23.13
2022-12-27T17:07:54.104Z,15.48
2022-12-27T17:10:42.894Z,10.82
2022-12-27T17:13:16.743Z,16.73
2022-12-27T17:16:11.670Z,8.27
2022-12-27T17:18:45.661Z,10.40
2022-12-27T17:21:18.176Z,13.00
2022-12-27T17:23:47.791Z,10.27
2022-12-27T17:26:17.373Z,9.10
2022-12-27T17:29:30.079Z,7.97
2022-12-27T17:32:08.995Z,7.65
2022-12-27T17:34:54.284Z,15.02
2022-12-27T17:37:31.113Z,7.85
2022-12-27T17:40:19.761Z,7.97
2022-12-27T17:43:26.124Z,8.38
2022-12-27T17:46:04.637Z,11.30
2022-12-27T17:48:32.775Z,13.52
2022-12-27T17:51:06.139Z,12.70
2022-12-27T17:53:51.483Z,9.13
2022-12-27T17:56:40.086Z,6.40
2022-12-27T17:59:12.023Z,11.65
2022-12-27T18:01:48.593Z,10.25
2022-12-27T18:04:35.016Z,12.77
2022-12-27T18:07:04.412Z,13.88
2022-12-27T18:09:44.568Z,9.07
2022-12-27T18:12:26.310Z,8.10
2022-12-27T18:15:05.840Z,10.25
2022-12-27T18:17:38.782Z,7.93
2022-12-27T18:20:27.807Z,6.93
2022-12-27T18:25:33.862Z,6.88
2022-12-27T18:28:02.728Z,8.18
2022-12-27T18:30:36.931Z,8.57
2022-12-27T18:33:06.784Z,10.68
2022-12-27T18:35:34.090Z,8.23
2022-12-27T18:38:02.133Z,8.52
2022-12-27T18:40:28.985Z,8.07
2022-12-27T18:42:56.725Z,5.45
2022-12-27T18:45:30.016Z,9.18
2022-12-27T18:48:00.227Z,9.45
2022-12-27T18:50:29.689Z,7.93
2022-12-27T18:53:07.890Z,6.68
2022-12-27T18:55:35.321Z,8.98
2022-12-27T18:58:19.885Z,6.55
2022-12-27T19:01:24.814Z,6.38
2022-12-27T19:04:18.282Z,7.32
2022-12-27T19:06:57.867Z,7.13
2022-12-27T19:09:47.781Z,9.15
2022-12-27T19:12:36.300Z,6.43
2022-12-27T19:15:05.087Z,5.28
2022-12-27T19:17:32.899Z,5.95
2022-12-27T19:20:02.362Z,9.15
2022-12-27T19:22:44.361Z,7.45
2022-12-27T19:25:25.958Z,5.30
2022-12-27T19:28:11.043Z,6.78
2022-12-27T19:30:51.584Z,5.95
2022-12-27T19:33:26.317Z,4.05
2022-12-27T19:35:53.377Z,6.53
2022-12-27T19:38:25.639Z,5.75
2022-12-27T19:41:02.863Z,6.47
2022-12-27T19:43:38.582Z,5.22
2022-12-27T19:46:05.937Z,8.65
2022-12-27T19:48:32.857Z,6.13
2022-12-27T19:50:59.844Z,7.28
2022-12-27T19:53:33.078Z,5.03
2022-12-27T19:56:01.962Z,6.28
2022-12-27T19:58:30.810Z,7.65
2022-12-27T20:00:58.449Z,4.18
2022-12-27T20:03:26.047Z,6.70
2022-12-27T20:06:12.824Z,6.43
2022-12-27T20:08:45.458Z,5.75
2022-12-27T20:11:15.839Z,13.70
2022-12-27T20:13:42.894Z,4.75
2022-12-27T20:16:12.429Z,4.70
2022-12-27T20:18:40.103Z,6.82
2022-12-27T20:21:07.647Z,5.43
2022-12-27T20:23:34.505Z,7.75
2022-12-27T20:26:02.814Z,5.72
2022-12-27T20:28:30.165Z,4.47
2022-12-27T20:30:57.050Z,4.63
2022-12-27T20:33:23.962Z,9.98
2022-12-27T20:35:58.185Z,4.88
2022-12-27T20:38:25.854Z,9.02
2022-12-27T20:40:52.769Z,4.82
2022-12-27T20:43:19.875Z,7.70
2022-12-27T20:45:47.008Z,6.05
2022-12-27T20:48:14.090Z,4.68
2022-12-27T20:50:41.262Z,9.20
2022-12-27T20:53:08.252Z,6.95
2022-12-27T20:55:35.582Z,6.97
2022-12-27T20:58:02.553Z,5.78
2022-12-27T21:00:29.446Z,4.95
2022-12-27T21:02:57.007Z,7.72
2022-12-27T21:05:24.129Z,8.40
2022-12-27T21:07:51.016Z,5.57
2022-12-27T21:10:17.913Z,7.03
2022-12-27T21:12:44.777Z,7.50
2022-12-27T21:15:12.377Z,7.97
2022-12-27T21:17:39.365Z,7.18
2022-12-27T21:20:10.911Z,5.00
2022-12-27T21:22:37.878Z,7.72
2022-12-27T21:25:05.100Z,7.35
2022-12-27T21:27:31.971Z,6.47
2022-12-27T21:29:58.889Z,6.30
2022-12-27T21:32:25.772Z,3.97
2022-12-27T21:34:52.708Z,5.38
2022-12-27T21:37:19.762Z,5.93
2022-12-27T21:39:46.665Z,4.70
2022-12-27T21:42:13.604Z,4.90
2022-12-27T21:44:40.495Z,4.28
2022-12-27T21:47:07.381Z,6.38
2022-12-27T21:49:35.024Z,4.22
2022-12-27T21:52:01.949Z,9.20
2022-12-27T21:54:28.955Z,4.60
2022-12-27T21:56:55.828Z,4.25
2022-12-27T21:59:22.665Z,6.55
2022-12-27T22:01:52.081Z,6.82
2022-12-27T22:04:21.033Z,10.73
2022-12-27T22:06:48.262Z,3.60
2022-12-27T22:09:15.815Z,4.68
2022-12-27T22:11:42.792Z,4.85
2022-12-27T22:14:09.713Z,5.55
2022-12-27T22:16:38.333Z,6.55
2022-12-27T22:19:06.939Z,3.92
2022-12-27T22:21:35.001Z,4.13
2022-12-27T22:24:03.069Z,5.57
2022-12-27T22:26:33.238Z,4.90
2022-12-27T22:29:00.480Z,12.43
2022-12-27T22:31:32.832Z,10.02
2022-12-27T22:33:59.797Z,6.53
2022-12-27T22:36:27.437Z,10.52
2022-12-27T22:38:58.950Z,4.93
2022-12-27T22:41:31.842Z,5.18
2022-12-27T22:44:04.427Z,3.92
2022-12-27T22:46:51.104Z,4.10
2022-12-27T22:49:18.453Z,4.47
2022-12-27T22:51:45.536Z,4.40
2022-12-27T22:54:12.494Z,6.28
2022-12-27T22:56:41.538Z,6.47
2022-12-27T22:59:13.380Z,4.07
2022-12-27T23:01:41.542Z,4.55
2022-12-27T23:04:10.511Z,4.25
2022-12-27T23:06:37.651Z,3.85
2022-12-27T23:09:05.331Z,2.95
2022-12-27T23:11:34.229Z,4.68
2022-12-27T23:14:21.322Z,4.40
2022-12-27T23:16:49.662Z,3.53
2022-12-27T23:19:19.354Z,3.38
2022-12-27T23:21:47.996Z,6.32
2022-12-27T23:24:15.119Z,4.60
2022-12-27T23:26:42.396Z,3.60
2022-12-27T23:29:12.633Z,5.82
2022-12-27T23:31:54.562Z,4.00
2022-12-27T23:34:27.737Z,3.53
2022-12-27T23:36:56.904Z,4.15
2022-12-27T23:39:23.727Z,3.08
2022-12-27T23:41:50.617Z,2.60
2022-12-27T23:44:22.752Z,3.10
2022-12-27T23:47:05.211Z,3.80
2022-12-27T23:49:32.533Z,3.95
2022-12-27T23:51:59.419Z,4.78
2022-12-27T23:54:26.339Z,3.42
2022-12-27T23:56:53.212Z,2.50
2022-12-27T23:59:20.129Z,3.90
